createdAt,value
2018-02-24T06:22:07.686Z,-4.70
2018-02-24T06:24:35.222Z,-4.80
2018-02-24T06:27:02.742Z,-4.80
2018-02-24T06:29:30.370Z,-4.80
2018-02-24T06:31:57.906Z,-4.80
2018-02-24T06:34:25.431Z,-4.80
2018-02-24T06:36:53.759Z,-4.90
2018-02-24T06:39:21.287Z,-4.90
2018-02-24T06:41:50.326Z,-4.80
2018-02-24T06:44:17.902Z,-4.80
2018-02-24T06:46:46.640Z,-4.80
2018-02-24T06:49:14.158Z,-4.80
2018-02-24T06:51:41.659Z,-4.80
2018-02-24T06:54:10.712Z,-4.80
2018-02-24T06:56:38.202Z,-4.70
2018-02-24T06:59:05.693Z,-4.80
2018-02-24T07:01:34.168Z,-4.80
2018-02-24T07:04:02.537Z,-4.70
2018-02-24T07:06:30.116Z,-4.60
2018-02-24T07:08:58.590Z,-4.60
2018-02-24T07:11:26.121Z,-4.50
2018-02-24T07:13:54.422Z,-4.20
2018-02-24T07:16:21.917Z,-4.30
2018-02-24T07:18:49.454Z,-3.80
2018-02-24T07:21:17.546Z,-3.40
2018-02-24T07:23:45.103Z,-2.90
2018-02-24T07:26:12.709Z,-2.70
2018-02-24T07:28:40.275Z,-2.10
2018-02-24T07:31:07.833Z,-2.90
2018-02-24T07:33:35.482Z,-3.30
2018-02-24T07:36:03.798Z,-3.70
2018-02-24T07:38:31.623Z,-3.80
2018-02-24T07:40:59.225Z,-3.90
2018-02-24T07:43:26.881Z,-3.90
2018-02-24T07:45:54.483Z,-4.00
2018-02-24T07:48:22.034Z,-4.10
2018-02-24T07:50:50.020Z,-4.10
2018-02-24T07:53:18.317Z,-4.00
2018-02-24T07:55:46.004Z,-4.00
2018-02-24T07:58:13.654Z,-4.00
2018-02-24T08:00:41.170Z,-3.90
2018-02-24T08:03:08.714Z,-3.80
2018-02-24T08:05:36.227Z,-3.90
2018-02-24T08:08:03.755Z,-4.00
2018-02-24T08:10:32.127Z,-3.90
2018-02-24T08:12:59.631Z,-3.90
2018-02-24T08:15:27.159Z,-3.80
2018-02-24T08:17:54.815Z,-3.70
2018-02-24T08:20:22.372Z,-3.60
2018-02-24T08:22:50.626Z,-2.50
2018-02-24T08:25:19.127Z,-2.60
2018-02-24T08:27:46.675Z,-0.90
2018-02-24T08:30:14.977Z,1.90
2018-02-24T08:32:42.519Z,1.90
2018-02-24T08:35:10.912Z,4.20
2018-02-24T08:37:38.446Z,4.20
2018-02-24T08:40:05.965Z,5.30
2018-02-24T08:42:33.521Z,5.40
2018-02-24T08:45:01.020Z,5.40
2018-02-24T08:47:28.650Z,6.30
2018-02-24T08:49:56.362Z,6.60
2018-02-24T08:52:23.847Z,6.10
2018-02-24T08:54:51.902Z,6.20
2018-02-24T08:57:19.606Z,6.00
2018-02-24T08:59:47.128Z,6.40
2018-02-24T09:02:14.640Z,6.70
2018-02-24T09:04:42.154Z,7.50
2018-02-24T09:07:10.034Z,7.50
2018-02-24T09:09:37.557Z,7.90
2018-02-24T09:12:05.838Z,7.90
2018-02-24T09:14:34.112Z,7.40
2018-02-24T09:17:01.676Z,7.40
2018-02-24T09:19:29.195Z,7.10
2018-02-24T09:21:56.771Z,7.40
2018-02-24T09:24:24.459Z,7.20
2018-02-24T09:26:51.955Z,6.60
2018-02-24T09:29:19.871Z,7.50
2018-02-24T09:31:48.196Z,7.80
2018-02-24T09:34:15.817Z,7.70
2018-02-24T09:36:43.349Z,7.40
2018-02-24T09:39:11.988Z,7.60
2018-02-24T09:41:39.487Z,7.30
2018-02-24T09:44:07.031Z,5.80
2018-02-24T09:46:34.532Z,5.60
2018-02-24T09:49:02.088Z,6.30
2018-02-24T09:51:30.372Z,6.30
2018-02-24T09:53:57.951Z,6.30
2018-02-24T09:56:25.485Z,5.30
2018-02-24T09:58:52.988Z,5.90
2018-02-24T10:01:20.625Z,6.40
2018-02-24T10:03:48.137Z,6.90
2018-02-24T10:06:15.851Z,7.10
2018-02-24T10:08:43.645Z,7.50
2018-02-24T10:11:11.280Z,7.70
2018-02-24T10:13:39.003Z,8.80
2018-02-24T10:16:07.273Z,9.20
2018-02-24T10:18:35.911Z,9.00
2018-02-24T10:21:03.399Z,9.00
2018-02-24T10:23:30.966Z,9.40
2018-02-24T10:25:59.560Z,9.40
2018-02-24T10:28:27.820Z,9.10
2018-02-24T10:30:55.550Z,9.10
2018-02-24T10:33:23.051Z,7.90
2018-02-24T10:35:51.369Z,6.80
2018-02-24T10:38:18.929Z,6.80
2018-02-24T10:40:47.596Z,6.70
2018-02-24T10:43:15.166Z,6.60
2018-02-24T10:45:42.840Z,6.40
2018-02-24T10:48:10.367Z,7.00
2018-02-24T10:50:38.676Z,7.30
2018-02-24T10:53:06.931Z,7.30
2018-02-24T10:55:34.458Z,7.70
2018-02-24T10:58:02.060Z,7.30
2018-02-24T11:00:29.567Z,7.20
2018-02-24T11:02:57.088Z,6.00
2018-02-24T11:05:24.607Z,5.70
2018-02-24T11:07:52.867Z,6.60
2018-02-24T11:10:21.386Z,6.60
2018-02-24T11:12:48.890Z,5.90
2018-02-24T11:15:16.416Z,5.70
2018-02-24T11:17:44.724Z,5.40
2018-02-24T11:20:12.187Z,5.50
2018-02-24T11:22:39.692Z,5.20
2018-02-24T11:25:07.348Z,4.40
2018-02-24T11:27:34.867Z,4.30
2018-02-24T11:30:02.363Z,4.70
2018-02-24T11:32:29.897Z,5.00
2018-02-24T11:34:57.606Z,5.10
2018-02-24T11:37:25.131Z,5.00
2018-02-24T11:39:52.652Z,4.80
2018-02-24T11:42:20.139Z,4.30
2018-02-24T11:44:47.661Z,3.60
2018-02-24T11:47:15.370Z,3.30
2018-02-24T11:49:43.088Z,3.30
2018-02-24T11:52:10.602Z,2.60
2018-02-24T11:54:38.107Z,2.20
2018-02-24T11:57:05.836Z,2.00
2018-02-24T11:59:33.387Z,2.10
2018-02-24T12:02:01.041Z,1.80
2018-02-24T12:04:29.683Z,2.20
2018-02-24T12:06:57.237Z,2.70
2018-02-24T12:09:25.316Z,2.70
2018-02-24T12:11:52.884Z,2.90
2018-02-24T12:14:20.490Z,3.20
2018-02-24T12:16:47.996Z,3.40
2018-02-24T12:19:15.533Z,3.40
2018-02-24T12:21:43.032Z,3.30
2018-02-24T12:24:10.708Z,3.20
2018-02-24T12:26:38.962Z,3.20
2018-02-24T12:29:06.578Z,3.20
2018-02-24T12:31:34.141Z,3.20
2018-02-24T12:34:01.664Z,2.90
2018-02-24T12:36:29.183Z,2.80
2018-02-24T12:38:56.697Z,2.80
2018-02-24T12:41:24.220Z,2.90
2018-02-24T12:43:51.734Z,2.90
2018-02-24T12:46:19.266Z,2.80
2018-02-24T12:48:47.216Z,3.20
2018-02-24T12:51:14.732Z,3.20
2018-02-24T12:53:43.016Z,3.00
2018-02-24T12:56:11.357Z,3.10
2018-02-24T12:58:38.853Z,3.10
2018-02-24T13:01:06.349Z,3.00
2018-02-24T13:03:33.978Z,3.20
2018-02-24T13:06:01.486Z,3.60
2018-02-24T13:08:30.208Z,3.50
2018-02-24T13:10:57.928Z,3.80
2018-02-24T13:13:25.479Z,3.90
2018-02-24T13:15:53.166Z,3.50
2018-02-24T13:18:20.862Z,3.40
2018-02-24T13:20:48.512Z,3.40
2018-02-24T13:23:16.019Z,3.40
2018-02-24T13:25:43.543Z,3.20
2018-02-24T13:28:11.843Z,3.10
2018-02-24T14:04:35.646Z,2.80
2018-02-24T14:07:03.184Z,2.70
2018-02-24T14:09:30.792Z,2.60
2018-02-24T14:11:58.279Z,2.40
2018-02-24T14:14:25.808Z,2.60
2018-02-24T14:16:53.374Z,2.30
2018-02-24T14:19:20.880Z,2.20
2018-02-24T14:21:48.386Z,1.80
2018-02-24T14:24:15.902Z,1.70
2018-02-24T14:26:43.419Z,1.60
2018-02-24T14:29:10.916Z,1.80
2018-02-24T14:31:38.541Z,1.80
2018-02-24T14:34:06.043Z,1.60
2018-02-24T14:36:33.578Z,1.70
2018-02-24T14:39:01.085Z,1.80
2018-02-24T14:41:28.580Z,1.80
2018-02-24T14:43:56.093Z,2.00
2018-02-24T14:46:24.359Z,1.80
2018-02-24T14:48:53.565Z,1.70
2018-02-24T14:51:21.071Z,1.60
2018-02-24T14:53:48.609Z,1.60
2018-02-24T14:56:16.139Z,1.50
2018-02-24T14:58:43.669Z,1.50
2018-02-24T15:01:11.191Z,1.50
2018-02-24T15:03:38.697Z,1.40
2018-02-24T15:06:06.213Z,1.30
2018-02-24T15:08:33.715Z,1.40
2018-02-24T15:11:01.210Z,1.40
2018-02-24T15:13:28.743Z,1.40
2018-02-24T15:15:57.004Z,1.40
2018-02-24T15:18:24.619Z,1.40
2018-02-24T15:20:57.370Z,1.40
2018-02-24T15:23:25.335Z,1.40
2018-02-24T15:25:52.928Z,1.50
2018-02-24T15:28:20.453Z,1.50
2018-02-24T15:30:48.739Z,1.40
2018-02-24T15:33:17.609Z,1.30
2018-02-24T15:35:45.151Z,1.40
2018-02-24T15:38:13.581Z,1.40
2018-02-24T15:40:41.109Z,1.50
2018-02-24T15:43:08.679Z,1.30
2018-02-24T15:45:36.239Z,1.10
2018-02-24T15:48:04.622Z,1.00
2018-02-24T15:50:33.599Z,0.90
2018-02-24T15:53:01.467Z,0.80
2018-02-24T15:55:30.272Z,0.70
2018-02-24T15:57:57.820Z,0.60
2018-02-24T16:00:25.665Z,0.50
2018-02-24T16:02:53.213Z,0.40
2018-02-24T16:05:20.754Z,0.40
2018-02-24T16:07:49.295Z,0.40
2018-02-24T16:10:17.130Z,0.20
2018-02-24T16:12:44.647Z,0.20
2018-02-24T16:15:12.310Z,0.10
2018-02-24T16:17:40.075Z,0.00
2018-02-24T16:20:08.615Z,-0.10
2018-02-24T16:22:36.183Z,-0.20
2018-02-24T16:25:04.674Z,-0.20
2018-02-24T16:27:32.313Z,-0.30
2018-02-24T16:30:00.075Z,-0.30
2018-02-24T16:32:28.518Z,-0.50
2018-02-24T16:34:56.044Z,-0.50
2018-02-24T16:37:23.554Z,-0.50
2018-02-24T16:39:51.916Z,-0.60
2018-02-24T16:42:20.176Z,-0.70
2018-02-24T16:44:48.185Z,-0.70
2018-02-24T16:47:15.701Z,-0.80
2018-02-24T16:49:43.348Z,-0.90
2018-02-24T16:52:11.500Z,-1.00
2018-02-24T16:54:39.075Z,-1.10
2018-02-24T16:57:06.603Z,-1.30
2018-02-24T16:59:34.679Z,-1.40
2018-02-24T17:02:02.220Z,-1.50
2018-02-24T17:04:29.803Z,-1.60
2018-02-24T17:06:58.317Z,-1.70
2018-02-24T17:09:25.839Z,-1.70
2018-02-24T17:11:53.396Z,-1.70
2018-02-24T17:14:20.901Z,-1.80
2018-02-24T17:16:48.443Z,-1.80
2018-02-24T17:19:17.175Z,-1.80
2018-02-24T17:21:44.876Z,-1.90
2018-02-24T17:24:12.395Z,-1.90
2018-02-24T17:26:39.932Z,-1.90
2018-02-24T17:29:07.579Z,-2.00
2018-02-24T17:31:35.116Z,-2.00
2018-02-24T17:34:02.659Z,-2.10
2018-02-24T17:36:30.907Z,-2.10
2018-02-24T17:38:58.449Z,-2.20
2018-02-24T17:41:25.979Z,-2.30
2018-02-24T17:43:54.306Z,-2.40
2018-02-24T17:46:21.822Z,-2.40
2018-02-24T17:48:49.514Z,-2.40
2018-02-24T17:51:17.136Z,-2.40
2018-02-24T17:53:45.457Z,-2.50
2018-02-24T17:56:13.002Z,-2.50
2018-02-24T17:58:40.558Z,-2.50
2018-02-24T18:01:08.096Z,-2.50
2018-02-24T18:03:35.614Z,-2.50
2018-02-24T18:06:03.180Z,-2.50
2018-02-24T18:08:31.867Z,-2.50
2018-02-24T18:10:59.383Z,-2.60
2018-02-24T18:13:26.899Z,-2.60
2018-02-24T18:15:54.411Z,-2.70
2018-02-24T18:18:22.365Z,-2.80
2018-02-24T18:20:49.878Z,-2.80
2018-02-24T18:23:18.301Z,-3.00
2018-02-24T18:25:45.823Z,-3.00
2018-02-24T18:28:14.155Z,-3.00
2018-02-24T18:30:41.706Z,-3.00
2018-02-24T18:33:09.222Z,-3.10
2018-02-24T18:35:36.772Z,-3.10
2018-02-24T18:38:04.292Z,-3.10
2018-02-24T18:40:32.081Z,-3.20
2018-02-24T18:42:59.578Z,-3.20
2018-02-24T18:45:27.161Z,-3.20
2018-02-24T18:47:54.692Z,-3.30
2018-02-24T18:50:22.956Z,-3.40
2018-02-24T18:52:50.475Z,-3.40
2018-02-24T18:55:18.007Z,-3.40
2018-02-24T18:57:45.532Z,-3.40
2018-02-24T19:00:13.818Z,-3.50
2018-02-24T19:02:42.091Z,-3.50
2018-02-24T19:05:09.626Z,-3.50
2018-02-24T19:07:37.110Z,-3.50
2018-02-24T19:10:04.629Z,-3.50
2018-02-24T19:12:32.119Z,-3.60
2018-02-24T19:15:00.574Z,-3.60
2018-02-24T19:17:28.088Z,-3.60
2018-02-24T19:19:55.644Z,-3.70
2018-02-24T19:22:23.180Z,-3.70
2018-02-24T19:24:50.699Z,-3.70
2018-02-24T19:27:18.314Z,-3.70
2018-02-24T19:29:46.072Z,-3.70
2018-02-24T19:32:13.568Z,-3.70
2018-02-24T19:34:41.096Z,-3.70
2018-02-24T19:37:08.608Z,-3.70
2018-02-24T19:39:36.165Z,-3.80
2018-02-24T19:42:03.685Z,-3.80
2018-02-24T19:44:31.189Z,-3.80
2018-02-24T19:46:58.740Z,-3.80
2018-02-24T19:49:26.233Z,-3.80
2018-02-24T19:51:53.890Z,-3.90
2018-02-24T19:54:22.154Z,-3.90
2018-02-24T19:56:50.451Z,-3.90
2018-02-24T19:59:17.965Z,-3.90
2018-02-24T20:01:45.475Z,-3.90
2018-02-24T20:04:13.006Z,-3.90
2018-02-24T20:06:40.551Z,-4.00
2018-02-24T20:09:08.082Z,-4.00
2018-02-24T20:11:35.629Z,-4.00
2018-02-24T20:14:03.276Z,-4.10
2018-02-24T20:16:30.786Z,-4.10
2018-02-24T20:18:58.352Z,-4.10
2018-02-24T20:21:26.773Z,-4.10
2018-02-24T20:23:54.269Z,-4.20
2018-02-24T20:26:21.801Z,-4.10
2018-02-24T20:28:49.309Z,-4.20
2018-02-24T20:31:16.864Z,-4.20
2018-02-24T20:33:45.272Z,-4.30
2018-02-24T20:36:12.846Z,-4.30
2018-02-24T20:38:40.347Z,-4.30
2018-02-24T20:41:07.846Z,-4.30
2018-02-24T20:43:35.396Z,-4.30
2018-02-24T20:46:03.439Z,-4.40
2018-02-24T20:48:31.539Z,-4.40
2018-02-24T20:50:59.145Z,-4.40
2018-02-24T20:53:28.088Z,-4.40
2018-02-24T20:55:55.984Z,-4.50
2018-02-24T20:58:23.550Z,-4.50
2018-02-24T21:00:51.284Z,-4.60
2018-02-24T21:03:19.473Z,-4.60
2018-02-24T21:08:42.941Z,-4.90
2018-02-24T21:11:13.589Z,-4.70
2018-02-24T21:13:41.459Z,-4.70
2018-02-24T21:16:12.761Z,-4.70
2018-02-24T21:18:40.386Z,-4.80
2018-02-24T21:21:15.050Z,-4.80
2018-02-24T21:23:42.767Z,-4.80
2018-02-24T21:26:19.176Z,-4.90
2018-02-24T21:28:48.428Z,-4.90
2018-02-24T21:31:15.953Z,-5.00
2018-02-24T21:33:43.482Z,-5.00
2018-02-24T21:36:11.039Z,-5.00
2018-02-24T21:38:39.036Z,-5.10
2018-02-24T21:41:06.629Z,-5.10
2018-02-24T21:43:34.510Z,-5.10
2018-02-24T21:46:02.587Z,-5.10
2018-02-24T21:48:30.191Z,-5.10
2018-02-24T21:50:58.845Z,-5.20
2018-02-24T21:53:26.339Z,-5.20
2018-02-24T21:55:55.003Z,-5.30
2018-02-24T21:58:22.711Z,-5.40
2018-02-24T22:00:50.229Z,-5.40
2018-02-24T22:03:17.975Z,-5.50
2018-02-24T22:05:45.720Z,-5.50
2018-02-24T22:08:13.252Z,-5.60
2018-02-24T22:10:41.698Z,-5.70
2018-02-24T22:13:09.733Z,-5.80
2018-02-24T22:15:37.308Z,-5.80
2018-02-24T22:18:04.873Z,-5.90
2018-02-24T22:20:32.408Z,-5.90
2018-02-24T22:22:59.989Z,-6.00
2018-02-24T22:25:27.588Z,-6.00
2018-02-24T22:27:55.149Z,-6.10
2018-02-24T22:30:23.442Z,-6.10
2018-02-24T22:35:54.527Z,-6.20
2018-02-24T22:38:22.043Z,-6.20
2018-02-24T22:40:49.592Z,-6.30
2018-02-24T22:43:17.943Z,-6.30
2018-02-24T22:45:45.889Z,-6.30
2018-02-24T22:48:19.109Z,-6.30
2018-02-24T22:50:47.257Z,-6.40
2018-02-24T22:53:14.813Z,-6.40
2018-02-24T22:55:42.357Z,-6.50
2018-02-24T22:58:09.983Z,-6.50
2018-02-24T23:00:38.005Z,-6.50
2018-02-24T23:03:07.223Z,-6.60
2018-02-24T23:05:34.719Z,-6.60
2018-02-24T23:08:02.231Z,-6.70
2018-02-24T23:10:31.507Z,-6.70
2018-02-24T23:12:59.182Z,-6.70
2018-02-24T23:15:26.698Z,-6.70
2018-02-24T23:17:54.258Z,-6.80
2018-02-24T23:20:22.775Z,-6.80
2018-02-24T23:22:50.309Z,-6.80
2018-02-24T23:25:18.755Z,-6.80
2018-02-24T23:27:47.024Z,-6.90
2018-02-24T23:30:14.562Z,-6.90
2018-02-24T23:32:42.087Z,-7.00
2018-02-24T23:35:10.669Z,-7.00
2018-02-24T23:37:38.862Z,-7.00
2018-02-24T23:40:07.322Z,-7.10
2018-02-24T23:42:34.837Z,-7.10
2018-02-24T23:45:02.355Z,-7.10
2018-02-24T23:47:29.967Z,-7.10
2018-02-24T23:49:57.477Z,-7.10
2018-02-24T23:52:24.996Z,-7.20
2018-02-24T23:54:52.478Z,-7.20
2018-02-24T23:57:20.067Z,-7.20
2018-02-24T23:59:47.592Z,-7.20
